Time;durP1;ratioP1;P1;durP2;ratioP2;P2;SDS_P1;SDS_P2;PMS_P1;PMS_P2;Temp;Humidity;BMP_temperature;BMP_pressure;BME280_temperature;BME280_humidity;BME280_pressure;Samples;Min_cycle;Max_cycle;Signal;HPM_P1;HPM_P2
2022/12/06 00:02:11;;;;;;;25.15;18.02;;;5.30;94.60;;;;;;4969675;28;20039;-76
2022/12/06 00:04:37;;;;;;;26.58;18.55;;;5.30;94.60;;;;;;4974272;28;20035;-77
2022/12/06 00:07:03;;;;;;;27.48;18.63;;;5.30;94.50;;;;;;4967219;28;20381;-75
2022/12/06 00:09:31;;;;;;;23.48;17.88;;;5.30;94.50;;;;;;4966975;28;20039;-76
2022/12/06 00:11:57;;;;;;;24.27;17.83;;;5.20;94.40;;;;;;4971965;28;20098;-80
2022/12/06 00:14:24;;;;;;;25.88;18.40;;;5.20;94.50;;;;;;4971446;28;20093;-77
2022/12/06 00:16:50;;;;;;;26.90;18.95;;;5.20;94.50;;;;;;4966976;28;20269;-79
2022/12/06 00:19:18;;;;;;;29.17;19.05;;;5.20;94.50;;;;;;4974258;28;20142;-76
2022/12/06 00:21:46;;;;;;;26.52;17.42;;;5.20;94.40;;;;;;4971231;28;20129;-76
2022/12/06 00:24:14;;;;;;;25.65;18.50;;;5.20;94.40;;;;;;4961608;28;20047;-77
2022/12/06 00:26:42;;;;;;;23.10;17.13;;;5.20;94.40;;;;;;4965676;28;20073;-77
2022/12/06 00:29:12;;;;;;;25.90;18.55;;;5.20;94.30;;;;;;4968603;28;20357;-76
2022/12/06 00:31:39;;;;;;;26.52;17.58;;;5.20;94.40;;;;;;4962894;28;20393;-76
2022/12/06 00:34:05;;;;;;;24.63;17.67;;;5.20;94.40;;;;;;4974197;28;20434;-79
2022/12/06 00:36:36;;;;;;;25.10;17.33;;;5.20;94.50;;;;;;4967589;28;20033;-75
2022/12/06 00:39:06;;;;;;;23.23;17.40;;;5.20;94.40;;;;;;4960947;28;20061;-75
2022/12/06 00:41:32;;;;;;;23.38;16.83;;;5.20;94.50;;;;;;4969080;28;20037;-78
2022/12/06 00:43:57;;;;;;;22.85;17.27;;;5.20;94.60;;;;;;4970624;28;20415;-76
2022/12/06 00:46:26;;;;;;;24.90;16.65;;;5.20;94.60;;;;;;4969534;28;20062;-76
2022/12/06 00:48:53;;;;;;;23.80;16.55;;;5.20;94.60;;;;;;4967769;28;20035;-78
2022/12/06 00:51:21;;;;;;;23.77;16.25;;;5.20;94.50;;;;;;4961856;28;20026;-76
2022/12/06 00:53:48;;;;;;;21.35;14.90;;;5.20;94.60;;;;;;4972170;28;20050;-75
2022/12/06 00:56:14;;;;;;;22.40;16.10;;;5.20;94.60;;;;;;4969954;28;20030;-76
2022/12/06 00:58:40;;;;;;;21.55;14.93;;;5.20;94.60;;;;;;4968700;28;20278;-76
2022/12/06 01:01:11;;;;;;;20.17;15.13;;;5.30;94.70;;;;;;4968888;28;20022;-77
2022/12/06 01:03:37;;;;;;;20.80;14.90;;;5.20;94.70;;;;;;4965725;28;20383;-76
2022/12/06 01:06:09;;;;;;;23.83;15.88;;;5.20;94.70;;;;;;4970193;28;20030;-76
2022/12/06 01:08:36;;;;;;;20.95;14.88;;;5.20;94.70;;;;;;4964627;28;20601;-76
2022/12/06 01:11:03;;;;;;;20.98;14.45;;;5.20;94.70;;;;;;4974918;28;20098;-78
2022/12/06 01:13:29;;;;;;;22.38;13.82;;;5.20;94.70;;;;;;4965965;28;20150;-77
2022/12/06 01:15:55;;;;;;;21.83;13.95;;;5.30;94.70;;;;;;4965401;28;20343;-77
2022/12/06 01:18:21;;;;;;;21.52;14.32;;;5.30;94.70;;;;;;4964596;28;20066;-79
2022/12/06 01:20:47;;;;;;;19.63;14.10;;;5.30;94.70;;;;;;4970071;28;20268;-76
2022/12/06 01:23:14;;;;;;;21.48;13.77;;;5.30;94.70;;;;;;4961309;28;20035;-76
2022/12/06 01:25:50;;;;;;;21.27;13.43;;;5.30;94.70;;;;;;4972917;28;20096;-77
2022/12/06 01:28:15;;;;;;;21.00;13.30;;;5.30;94.70;;;;;;4976355;28;20388;-76
2022/12/06 01:30:41;;;;;;;20.00;13.88;;;5.30;94.70;;;;;;4964997;28;20042;-76
2022/12/06 01:33:07;;;;;;;21.35;13.65;;;5.30;94.70;;;;;;4961326;28;20043;-77
2022/12/06 01:35:33;;;;;;;19.92;14.07;;;5.30;94.70;;;;;;4971280;28;20456;-76
2022/12/06 01:37:58;;;;;;;22.08;13.95;;;5.30;94.70;;;;;;4967977;28;20431;-78
2022/12/06 01:40:24;;;;;;;19.55;13.15;;;5.30;94.70;;;;;;4972262;28;20047;-78
2022/12/06 01:42:51;;;;;;;20.70;12.73;;;5.30;94.70;;;;;;4976052;28;20113;-76
2022/12/06 01:45:16;;;;;;;19.55;13.30;;;5.30;94.60;;;;;;4968611;28;20287;-77
2022/12/06 01:47:43;;;;;;;18.27;13.15;;;5.30;94.60;;;;;;4968113;28;20034;-77
2022/12/06 01:50:11;;;;;;;20.63;13.50;;;5.30;94.60;;;;;;4967542;28;20026;-77
2022/12/06 01:52:56;;;;;;;17.73;12.65;;;5.30;94.50;;;;;;4975608;28;20046;-78
2022/12/06 01:55:26;;;;;;;21.65;13.73;;;5.20;94.50;;;;;;4969514;28;20042;-76
2022/12/06 01:57:56;;;;;;;20.23;12.63;;;5.20;94.50;;;;;;4974335;28;20439;-79
2022/12/06 02:00:22;;;;;;;19.17;12.70;;;5.20;94.60;;;;;;4970172;28;20046;-79
2022/12/06 02:02:48;;;;;;;18.55;12.50;;;5.20;94.60;;;;;;4978999;28;20039;-78
2022/12/06 02:05:15;;;;;;;16.50;12.07;;;5.20;94.60;;;;;;4966903;28;20097;-77
2022/12/06 02:07:42;;;;;;;18.50;12.23;;;5.20;94.50;;;;;;4973078;28;20035;-76
2022/12/06 02:10:08;;;;;;;16.38;12.20;;;5.20;94.60;;;;;;4967085;28;20073;-77
2022/12/06 02:12:34;;;;;;;17.70;11.75;;;5.20;94.60;;;;;;4961346;28;20035;-76
2022/12/06 02:14:59;;;;;;;16.15;11.60;;;5.20;94.60;;;;;;4971562;28;20438;-76
2022/12/06 02:17:37;;;;;;;18.35;13.02;;;5.20;94.60;;;;;;4969948;28;20058;-78
2022/12/06 02:20:11;;;;;;;21.45;12.40;;;5.20;94.60;;;;;;4971936;28;20411;-78
2022/12/06 02:23:01;;;;;;;18.20;12.30;;;5.10;94.60;;;;;;4970871;28;20132;-78
2022/12/06 02:26:04;;;;;;;17.98;12.50;;;5.10;94.60;;;;;;4972921;28;20034;-76
2022/12/06 02:28:48;;;;;;;18.65;12.02;;;5.10;94.50;;;;;;4964129;28;20034;-77
2022/12/06 02:31:31;;;;;;;18.40;11.77;;;5.10;94.50;;;;;;4969012;28;20352;-76
2022/12/06 02:34:05;;;;;;;17.98;11.80;;;5.10;94.50;;;;;;4969103;28;20046;-78
2022/12/06 02:36:43;;;;;;;19.92;11.52;;;5.00;94.40;;;;;;4966218;28;20034;-76
2022/12/06 02:39:14;;;;;;;18.42;13.07;;;5.00;94.40;;;;;;4967095;28;20027;-77
2022/12/06 02:41:47;;;;;;;21.08;12.88;;;4.90;94.40;;;;;;4968498;28;20535;-77
2022/12/06 02:44:32;;;;;;;18.92;12.40;;;4.90;94.40;;;;;;4982926;28;20047;-77
2022/12/06 02:47:00;;;;;;;22.45;12.50;;;4.80;94.40;;;;;;4965828;28;20046;-77
2022/12/06 02:49:30;;;;;;;20.67;12.90;;;4.80;94.40;;;;;;4969199;28;20038;-77
2022/12/06 02:51:56;;;;;;;18.02;12.30;;;4.80;94.50;;;;;;4966415;28;20125;-77
2022/12/06 02:54:23;;;;;;;18.95;12.25;;;4.60;94.40;;;;;;4972400;28;20584;-76
2022/12/06 02:56:49;;;;;;;17.02;12.05;;;4.60;94.40;;;;;;4965193;28;20578;-76
2022/12/06 02:59:14;;;;;;;20.05;12.63;;;4.60;94.40;;;;;;4965741;28;20054;-77
2022/12/06 03:01:45;;;;;;;17.42;12.30;;;4.50;94.40;;;;;;4969420;28;20046;-77
2022/12/06 03:04:31;;;;;;;16.83;11.90;;;4.40;94.40;;;;;;4968498;28;20039;-76
2022/12/06 03:07:06;;;;;;;21.02;11.80;;;4.40;94.50;;;;;;4971852;28;20105;-79
2022/12/06 03:09:37;;;;;;;16.50;11.48;;;4.40;94.50;;;;;;4967429;28;20158;-78
2022/12/06 03:12:26;;;;;;;16.02;10.90;;;4.30;94.60;;;;;;4964758;28;20375;-76
2022/12/06 03:14:54;;;;;;;22.00;11.88;;;4.30;94.60;;;;;;4983437;28;20049;-77
2022/12/06 03:17:46;;;;;;;17.88;10.73;;;4.30;94.60;;;;;;4973499;28;20052;-76
2022/12/06 03:20:26;;;;;;;16.75;11.18;;;4.30;94.70;;;;;;4961616;28;20038;-79
2022/12/06 03:22:57;;;;;;;19.50;12.48;;;4.30;94.70;;;;;;4957582;28;20133;-78
2022/12/06 03:25:24;;;;;;;16.63;11.00;;;4.30;94.80;;;;;;4966613;28;20034;-78
2022/12/06 03:27:53;;;;;;;17.50;11.77;;;4.30;94.80;;;;;;4965198;28;20023;-77
2022/12/06 03:30:19;;;;;;;19.30;11.77;;;4.30;94.90;;;;;;4964112;28;20518;-77
2022/12/06 03:32:48;;;;;;;19.63;12.23;;;4.40;94.90;;;;;;4974608;28;20050;-77
2022/12/06 03:35:18;;;;;;;20.42;11.77;;;4.40;94.90;;;;;;4970851;28;20520;-77
2022/12/06 03:37:48;;;;;;;19.65;12.27;;;4.40;94.80;;;;;;4968100;28;20820;-76
2022/12/06 03:40:27;;;;;;;21.35;11.52;;;4.40;94.80;;;;;;4973751;28;20041;-77
2022/12/06 03:42:53;;;;;;;18.50;11.82;;;4.40;94.70;;;;;;4969538;28;20033;-76
2022/12/06 03:45:23;;;;;;;19.73;11.13;;;4.40;94.70;;;;;;4967325;28;20035;-78
2022/12/06 03:48:03;;;;;;;18.17;11.70;;;4.40;94.60;;;;;;4967490;28;20346;-76
2022/12/06 03:50:35;;;;;;;18.17;11.75;;;4.40;94.60;;;;;;4967928;28;20031;-78
2022/12/06 03:53:01;;;;;;;17.73;10.65;;;4.30;94.60;;;;;;4965743;28;20506;-77
2022/12/06 03:55:27;;;;;;;18.35;11.27;;;4.30;94.50;;;;;;4962554;28;20031;-77
2022/12/06 03:57:52;;;;;;;19.20;10.77;;;4.30;94.50;;;;;;4965661;28;20291;-77
2022/12/06 04:00:18;;;;;;;18.20;10.55;;;4.30;94.50;;;;;;4963562;28;20506;-77
2022/12/06 04:02:44;;;;;;;16.70;11.10;;;4.20;94.30;;;;;;4970129;28;20116;-78
2022/12/06 04:05:10;;;;;;;21.95;11.82;;;4.20;94.30;;;;;;4964701;28;20357;-76
2022/12/06 04:07:36;;;;;;;17.95;11.32;;;4.10;94.30;;;;;;4963302;28;20043;-80
2022/12/06 04:10:03;;;;;;;18.08;11.00;;;4.10;94.30;;;;;;4966708;28;20087;-78
2022/12/06 04:15:17;;;;;;;17.73;11.82;;;4.10;94.40;;;;;;4966543;28;20396;-77
2022/12/06 04:20:28;;;;;;;16.63;11.50;;;4.00;94.40;;;;;;4967144;28;20058;-77
2022/12/06 04:23:03;;;;;;;18.40;10.77;;;3.90;94.40;;;;;;4982725;28;20042;-77
2022/12/06 04:25:34;;;;;;;16.52;11.00;;;3.90;94.40;;;;;;4977427;28;20094;-78
2022/12/06 04:38:58;;;;;;;20.63;12.95;;;3.80;94.70;;;;;;4963728;28;20062;-78
2022/12/06 04:44:08;;;;;;;17.30;11.07;;;3.60;94.70;;;;;;4962905;28;20385;-78
2022/12/06 04:46:34;;;;;;;17.58;11.32;;;3.60;94.70;;;;;;4970489;28;20034;-77
2022/12/06 04:49:00;;;;;;;17.20;10.93;;;3.60;94.80;;;;;;4966604;28;20042;-77
2022/12/06 04:51:25;;;;;;;18.85;11.48;;;3.60;94.80;;;;;;4969814;28;20041;-77
2022/12/06 04:53:51;;;;;;;16.90;10.85;;;3.60;94.80;;;;;;4963330;28;20058;-79
2022/12/06 04:56:17;;;;;;;19.77;11.88;;;3.60;94.80;;;;;;4963590;28;20042;-77
2022/12/06 04:58:43;;;;;;;18.10;10.57;;;3.70;94.70;;;;;;4967261;28;20312;-77
2022/12/06 05:01:08;;;;;;;18.48;11.00;;;3.60;94.70;;;;;;4961447;28;20058;-79
2022/12/06 05:03:35;;;;;;;19.42;11.00;;;3.60;94.60;;;;;;4963568;28;20050;-79
2022/12/06 05:06:01;;;;;;;19.75;11.77;;;3.60;94.70;;;;;;4966444;28;20137;-79
2022/12/06 05:08:26;;;;;;;16.60;11.65;;;3.60;94.70;;;;;;4963682;28;20030;-79
2022/12/06 05:10:52;;;;;;;16.98;10.98;;;3.60;94.70;;;;;;4958587;28;20462;-77
2022/12/06 05:13:19;;;;;;;19.08;10.68;;;3.60;94.80;;;;;;4957228;28;20509;-79
2022/12/06 05:16:04;;;;;;;18.95;12.02;;;3.60;94.70;;;;;;4955739;28;20097;-78
2022/12/06 05:18:31;;;;;;;19.02;12.60;;;3.50;94.70;;;;;;4958643;28;20431;-77
2022/12/06 05:21:11;;;;;;;19.08;13.00;;;3.50;94.70;;;;;;4963919;28;20482;-78
2022/12/06 05:23:37;;;;;;;21.08;13.32;;;3.60;94.80;;;;;;4954444;28;20058;-78
2022/12/06 05:26:10;;;;;;;19.83;13.23;;;3.60;94.80;;;;;;4956132;28;20198;-78
2022/12/06 05:28:36;;;;;;;16.58;12.32;;;3.50;94.80;;;;;;4959883;28;20391;-79
2022/12/06 05:31:02;;;;;;;21.05;13.02;;;3.50;94.70;;;;;;4954119;28;20033;-78
2022/12/06 05:33:28;;;;;;;19.90;13.18;;;3.50;94.70;;;;;;4954400;28;20043;-77
2022/12/06 05:35:54;;;;;;;20.02;12.30;;;3.50;94.80;;;;;;4955918;28;20895;-79
2022/12/06 05:38:20;;;;;;;18.15;12.63;;;3.40;94.70;;;;;;4959109;28;20031;-79
2022/12/06 05:40:46;;;;;;;19.25;11.88;;;3.40;94.70;;;;;;4963445;28;20077;-78
2022/12/06 05:43:12;;;;;;;16.13;11.45;;;3.30;94.70;;;;;;4961514;28;20043;-78
2022/12/06 05:45:38;;;;;;;18.63;12.10;;;3.30;94.60;;;;;;4957619;28;20364;-77
2022/12/06 05:48:05;;;;;;;18.58;11.80;;;3.20;94.60;;;;;;4964274;28;20715;-77
2022/12/06 05:50:31;;;;;;;19.95;12.82;;;3.20;94.70;;;;;;4961178;28;20426;-78
2022/12/06 05:52:58;;;;;;;21.33;12.48;;;3.10;94.70;;;;;;4960192;28;20042;-77
2022/12/06 05:55:24;;;;;;;19.88;12.70;;;3.10;94.70;;;;;;4963586;28;20062;-77
2022/12/06 05:57:51;;;;;;;18.70;11.05;;;3.10;94.80;;;;;;4958748;28;20069;-76
2022/12/06 06:00:17;;;;;;;23.17;14.00;;;3.10;94.80;;;;;;4959972;28;20539;-79
2022/12/06 06:02:43;;;;;;;19.98;12.32;;;3.10;94.90;;;;;;4961607;28;20054;-76
2022/12/06 06:05:09;;;;;;;21.42;13.48;;;3.10;95.00;;;;;;4960680;28;20420;-77
2022/12/06 06:07:34;;;;;;;24.65;16.42;;;3.20;95.10;;;;;;4958178;28;20118;-78
2022/12/06 06:10:00;;;;;;;24.20;14.20;;;3.20;95.10;;;;;;4962632;28;20391;-77
2022/12/06 06:12:26;;;;;;;19.40;13.57;;;3.20;95.10;;;;;;4963104;28;20061;-76
2022/12/06 06:14:52;;;;;;;19.48;12.60;;;3.20;95.00;;;;;;4970868;28;20452;-77
2022/12/06 06:17:18;;;;;;;17.42;11.93;;;3.10;95.00;;;;;;4964744;28;20037;-77
2022/12/06 06:19:43;;;;;;;18.02;11.23;;;3.10;94.90;;;;;;4963647;28;20370;-78
2022/12/06 06:22:09;;;;;;;15.75;11.65;;;3.10;94.80;;;;;;4962115;28;20487;-77
2022/12/06 06:24:39;;;;;;;16.20;11.75;;;2.90;94.80;;;;;;4967913;28;20026;-76
2022/12/06 06:27:05;;;;;;;20.80;12.23;;;2.90;94.70;;;;;;4982480;28;20030;-78
2022/12/06 06:29:31;;;;;;;15.45;11.50;;;2.80;94.70;;;;;;4970167;28;20416;-76
2022/12/06 06:31:57;;;;;;;17.02;11.10;;;2.70;94.70;;;;;;4963069;28;20599;-77
2022/12/06 06:34:26;;;;;;;17.30;11.65;;;2.70;94.70;;;;;;4971041;28;20503;-75
2022/12/06 06:36:51;;;;;;;16.50;11.00;;;2.60;94.70;;;;;;4966084;28;20662;-76
2022/12/06 06:39:17;;;;;;;18.83;11.30;;;2.60;94.70;;;;;;4973413;28;20050;-75
2022/12/06 06:41:46;;;;;;;16.83;11.32;;;2.60;94.80;;;;;;4961845;28;20031;-77
2022/12/06 06:44:12;;;;;;;16.00;10.95;;;2.50;94.70;;;;;;4956957;28;20031;-76
2022/12/06 06:46:38;;;;;;;15.25;10.77;;;2.40;94.70;;;;;;4966548;28;20038;-79
2022/12/06 06:49:04;;;;;;;15.30;10.25;;;2.40;94.70;;;;;;4970290;28;20070;-75
2022/12/06 06:51:31;;;;;;;18.23;12.23;;;2.30;94.70;;;;;;4965547;28;20466;-77
2022/12/06 06:53:57;;;;;;;16.80;11.88;;;2.30;94.70;;;;;;4964890;28;20054;-77
2022/12/06 06:56:23;;;;;;;17.80;11.68;;;2.30;94.80;;;;;;4963415;28;20019;-76
2022/12/06 06:58:49;;;;;;;18.90;11.85;;;2.30;94.70;;;;;;4963014;28;20038;-77
2022/12/06 07:01:20;;;;;;;16.60;11.93;;;2.20;94.70;;;;;;4961197;28;20110;-79
2022/12/06 07:03:46;;;;;;;19.08;12.82;;;2.20;94.70;;;;;;4960966;28;20761;-75
2022/12/06 07:06:12;;;;;;;21.15;13.55;;;2.10;94.60;;;;;;4961378;28;20199;-76
2022/12/06 07:08:40;;;;;;;20.02;13.52;;;2.10;94.70;;;;;;4966537;28;20060;-76
2022/12/06 07:11:06;;;;;;;20.33;11.82;;;2.10;94.70;;;;;;4964298;28;20027;-79
2022/12/06 07:13:32;;;;;;;19.25;12.82;;;2.10;94.80;;;;;;4967703;28;20034;-76
2022/12/06 07:15:58;;;;;;;18.40;12.18;;;2.00;94.70;;;;;;4970734;28;20030;-81
2022/12/06 07:18:24;;;;;;;24.02;14.05;;;2.00;94.70;;;;;;4963439;28;20042;-74
2022/12/06 07:21:02;;;;;;;24.60;14.38;;;2.00;94.70;;;;;;4972003;28;20491;-76
2022/12/06 07:23:28;;;;;;;21.33;12.40;;;1.90;94.80;;;;;;4973231;28;20066;-76
2022/12/06 07:26:03;;;;;;;27.08;15.02;;;1.90;94.70;;;;;;4964960;28;20621;-74
2022/12/06 07:28:29;;;;;;;25.23;14.45;;;1.90;94.80;;;;;;4967320;28;20035;-76
2022/12/06 07:30:54;;;;;;;21.40;13.50;;;1.90;94.80;;;;;;4965730;28;20041;-74
2022/12/06 07:33:20;;;;;;;23.10;13.07;;;1.90;94.80;;;;;;4965449;28;20058;-74
2022/12/06 07:35:53;;;;;;;23.20;14.15;;;1.90;94.80;;;;;;4968749;28;20157;-75
2022/12/06 07:38:19;;;;;;;25.30;13.18;;;1.80;94.80;;;;;;4972832;28;20084;-79
2022/12/06 07:40:45;;;;;;;20.23;12.80;;;1.90;94.90;;;;;;4961144;28;20043;-79
2022/12/06 07:45:55;;;;;;;21.10;12.63;;;2.00;94.90;;;;;;4960292;28;20130;-76
2022/12/06 07:48:21;;;;;;;19.85;12.48;;;2.10;94.90;;;;;;4952641;28;20458;-77
2022/12/06 07:50:46;;;;;;;19.00;11.40;;;2.10;94.90;;;;;;4961368;28;20614;-76
2022/12/06 07:53:12;;;;;;;18.65;12.07;;;2.10;94.90;;;;;;4966437;28;20055;-77
2022/12/06 07:55:38;;;;;;;22.65;13.32;;;2.20;94.90;;;;;;4962971;28;20043;-78
2022/12/06 07:58:03;;;;;;;20.42;12.63;;;2.20;95.00;;;;;;4964828;28;20796;-75
2022/12/06 08:00:29;;;;;;;25.05;13.77;;;2.30;95.00;;;;;;4965850;28;20030;-80
2022/12/06 08:02:55;;;;;;;23.98;14.32;;;2.40;95.00;;;;;;4968741;28;20467;-78
2022/12/06 08:05:20;;;;;;;23.42;14.55;;;2.40;94.90;;;;;;4968826;28;20439;-78
2022/12/06 08:07:46;;;;;;;24.08;14.40;;;2.50;94.90;;;;;;4962254;28;20050;-76
2022/12/06 08:10:13;;;;;;;27.70;16.13;;;2.50;94.80;;;;;;4965344;28;20073;-79
2022/12/06 08:12:39;;;;;;;27.33;16.48;;;2.60;94.80;;;;;;4964776;28;20035;-76
2022/12/06 08:15:11;;;;;;;24.98;14.75;;;2.60;94.70;;;;;;4970672;28;20035;-80
2022/12/06 08:17:39;;;;;;;24.35;15.13;;;2.60;94.60;;;;;;4961394;28;20078;-76
2022/12/06 08:20:06;;;;;;;25.92;16.88;;;2.70;94.60;;;;;;4966640;28;20038;-76
2022/12/06 08:22:32;;;;;;;33.28;23.17;;;2.80;94.50;;;;;;4963717;28;20633;-78
2022/12/06 08:24:59;;;;;;;25.88;18.52;;;2.80;94.20;;;;;;4967231;28;20035;-76
2022/12/06 08:27:24;;;;;;;24.70;16.35;;;2.90;94.20;;;;;;4967262;28;20129;-80
2022/12/06 08:29:50;;;;;;;24.98;16.30;;;2.90;94.00;;;;;;4972873;28;20523;-85
2022/12/06 08:32:16;;;;;;;26.33;17.35;;;3.00;93.90;;;;;;4964740;28;20027;-79
2022/12/06 08:34:42;;;;;;;29.85;17.25;;;3.00;93.80;;;;;;4964849;28;20043;-76
2022/12/06 08:37:09;;;;;;;21.88;15.38;;;3.10;93.80;;;;;;4963069;28;20042;-79
2022/12/06 08:39:35;;;;;;;23.17;14.70;;;3.20;93.70;;;;;;4965114;28;20035;-75
2022/12/06 08:42:05;;;;;;;26.05;17.52;;;3.20;93.70;;;;;;4971637;28;20086;-79
2022/12/06 08:44:31;;;;;;;19.88;14.30;;;3.40;93.70;;;;;;4961901;28;20039;-78
2022/12/06 08:46:59;;;;;;;22.20;14.90;;;3.40;93.70;;;;;;4968490;28;20550;-77
2022/12/06 08:49:26;;;;;;;22.35;14.52;;;3.60;93.70;;;;;;4964270;28;20031;-78
2022/12/06 08:51:52;;;;;;;20.90;14.70;;;3.60;93.70;;;;;;4969578;28;20119;-79
2022/12/06 08:54:21;;;;;;;21.48;14.98;;;3.80;93.90;;;;;;4967310;28;20042;-76
2022/12/06 08:56:48;;;;;;;19.48;14.48;;;4.00;93.80;;;;;;4960168;28;20460;-81
2022/12/06 08:59:14;;;;;;;20.02;14.35;;;4.10;93.80;;;;;;4952955;28;20053;-80
2022/12/06 09:01:40;;;;;;;19.80;14.93;;;4.10;93.60;;;;;;4960496;28;20038;-79
2022/12/06 09:04:09;;;;;;;21.58;13.75;;;4.20;93.60;;;;;;4955183;28;20039;-78
2022/12/06 09:06:37;;;;;;;20.13;14.23;;;4.30;93.60;;;;;;4961174;28;20026;-81
2022/12/06 09:09:04;;;;;;;23.50;14.38;;;4.40;93.60;;;;;;4946412;28;20122;-81
2022/12/06 09:11:30;;;;;;;18.35;13.23;;;4.50;93.50;;;;;;4959064;28;20035;-77
2022/12/06 09:13:56;;;;;;;19.58;13.38;;;4.60;93.40;;;;;;4955283;28;20100;-79
2022/12/06 09:16:23;;;;;;;20.05;14.57;;;4.60;93.30;;;;;;4961192;28;20039;-79
2022/12/06 09:18:52;;;;;;;20.23;14.15;;;4.70;93.30;;;;;;4954369;28;20138;-79
2022/12/06 09:21:24;;;;;;;26.05;20.92;;;4.70;93.30;;;;;;4955741;28;20089;-79
2022/12/06 09:23:53;;;;;;;25.38;19.13;;;4.70;93.20;;;;;;4955150;28;20035;-81
2022/12/06 09:26:18;;;;;;;22.25;18.25;;;4.70;93.10;;;;;;4958013;28;20121;-79
2022/12/06 09:28:48;;;;;;;20.55;17.13;;;4.80;93.30;;;;;;4952578;28;20030;-80
2022/12/06 09:31:14;;;;;;;22.70;16.25;;;4.90;93.30;;;;;;4951479;28;20034;-82
2022/12/06 09:33:40;;;;;;;25.08;18.77;;;5.00;93.40;;;;;;4954416;28;20050;-79
2022/12/06 09:36:18;;;;;;;25.73;19.63;;;5.10;93.30;;;;;;4952944;28;20034;-81
2022/12/06 09:38:47;;;;;;;27.45;19.35;;;5.10;93.30;;;;;;4951091;28;20867;-80
2022/12/06 09:41:54;;;;;;;25.20;18.05;;;5.10;93.30;;;;;;4953398;28;20141;-79
2022/12/06 09:44:38;;;;;;;25.40;18.80;;;5.20;93.20;;;;;;4951306;28;20414;-79
2022/12/06 09:47:27;;;;;;;27.88;19.70;;;5.30;93.30;;;;;;4955190;28;20680;-79
2022/12/06 09:50:07;;;;;;;25.80;18.55;;;5.30;93.20;;;;;;4958221;28;20039;-80
2022/12/06 09:52:58;;;;;;;24.08;17.02;;;5.30;93.10;;;;;;4955291;28;20035;-81
2022/12/06 09:55:46;;;;;;;26.10;16.90;;;5.40;93.20;;;;;;4953224;28;20054;-81
2022/12/06 09:58:32;;;;;;;24.75;16.25;;;5.50;93.10;;;;;;4964622;28;20503;-79
2022/12/06 10:01:18;;;;;;;23.52;16.70;;;5.60;93.10;;;;;;4960851;28;20429;-81
2022/12/06 10:04:17;;;;;;;21.75;14.93;;;5.60;93.10;;;;;;4964235;28;20067;-76
2022/12/06 10:07:02;;;;;;;20.48;15.00;;;5.60;93.20;;;;;;4968055;28;20046;-78
2022/12/06 10:09:41;;;;;;;21.70;14.48;;;5.70;93.20;;;;;;4974961;28;20039;-79
2022/12/06 10:12:42;;;;;;;23.85;14.73;;;5.80;93.10;;;;;;4979629;28;20046;-76
2022/12/06 10:15:32;;;;;;;19.52;15.63;;;5.70;92.90;;;;;;4970888;28;20043;-75
2022/12/06 10:18:07;;;;;;;20.83;16.38;;;5.70;92.80;;;;;;4961185;28;20108;-75
2022/12/06 10:21:02;;;;;;;20.77;15.82;;;5.70;92.80;;;;;;4964006;28;20132;-75
2022/12/06 10:23:52;;;;;;;20.75;14.40;;;5.60;92.90;;;;;;4955247;28;20035;-75
2022/12/06 10:26:39;;;;;;;21.95;15.57;;;5.50;92.90;;;;;;4963272;28;20027;-74
2022/12/06 10:29:29;;;;;;;23.13;17.73;;;5.60;93.10;;;;;;4963737;28;20714;-75
2022/12/06 10:32:39;;;;;;;23.30;18.15;;;5.80;93.60;;;;;;4965341;28;20062;-76
2022/12/06 10:35:27;;;;;;;23.13;17.58;;;6.00;93.60;;;;;;4950346;28;20035;-78
2022/12/06 10:38:23;;;;;;;22.50;16.83;;;6.30;93.30;;;;;;4975233;28;20038;-78
2022/12/06 10:41:04;;;;;;;21.05;17.13;;;6.40;93.00;;;;;;4972604;28;20116;-78
2022/12/06 10:43:56;;;;;;;23.00;15.60;;;6.60;92.60;;;;;;4965450;28;20039;-77
2022/12/06 10:47:03;;;;;;;23.50;16.92;;;6.60;91.90;;;;;;4962057;28;20117;-80
2022/12/06 10:49:56;;;;;;;26.45;16.08;;;6.60;91.40;;;;;;4963677;28;20039;-77
2022/12/06 10:52:35;;;;;;;19.05;14.73;;;6.80;91.30;;;;;;4973333;28;20030;-77
2022/12/06 10:55:09;;;;;;;19.02;12.52;;;6.90;91.10;;;;;;4967147;28;20526;-81
2022/12/06 10:57:43;;;;;;;;;;;6.90;90.50;;;;;;4966343;28;20035;-75
2022/12/06 11:00:14;;;;;;;17.52;12.27;;;6.90;90.50;;;;;;4968909;28;19917;-74
2022/12/06 11:02:48;;;;;;;16.15;10.98;;;7.00;90.50;;;;;;4970745;28;20053;-75
2022/12/06 11:05:33;;;;;;;16.37;10.77;;;7.10;90.30;;;;;;4966744;28;20039;-75
2022/12/06 11:08:23;;;;;;;15.60;11.25;;;7.10;89.80;;;;;;4976558;28;20290;-75
2022/12/06 11:10:50;;;;;;;15.40;9.70;;;7.10;89.20;;;;;;4966321;28;20118;-77
2022/12/06 11:13:39;;;;;;;14.68;9.35;;;7.10;88.70;;;;;;4963654;28;20483;-76
2022/12/06 11:16:26;;;;;;;14.40;8.18;;;7.10;88.40;;;;;;4970423;28;20109;-76
2022/12/06 11:18:55;;;;;;;12.23;7.85;;;7.10;88.10;;;;;;4958930;28;20158;-79
2022/12/06 11:21:33;;;;;;;13.98;8.60;;;7.20;88.00;;;;;;4966152;28;20055;-75
2022/12/06 11:24:06;;;;;;;14.95;8.88;;;7.30;87.60;;;;;;4952114;28;20027;-75
2022/12/06 11:26:52;;;;;;;13.32;6.47;;;7.50;86.90;;;;;;4975104;28;20159;-75
2022/12/06 11:29:18;;;;;;;13.15;7.07;;;7.40;85.10;;;;;;4960411;28;20045;-75
2022/12/06 11:31:49;;;;;;;14.48;7.82;;;7.40;85.40;;;;;;4964275;28;20035;-74
2022/12/06 11:34:20;;;;;;;13.40;7.10;;;7.40;85.60;;;;;;4956458;28;20043;-75
2022/12/06 11:36:49;;;;;;;13.55;8.15;;;7.50;85.40;;;;;;4957191;28;20733;-78
2022/12/06 11:39:16;;;;;;;12.93;7.15;;;7.50;84.60;;;;;;4957741;28;20317;-75
2022/12/06 11:41:45;;;;;;;10.10;6.15;;;7.60;83.50;;;;;;4957640;28;20278;-76
2022/12/06 11:44:19;;;;;;;12.73;6.22;;;7.70;82.20;;;;;;4954490;28;20368;-77
2022/12/06 11:46:49;;;;;;;11.75;5.97;;;7.70;81.60;;;;;;4954234;28;20110;-76
2022/12/06 11:49:26;;;;;;;11.43;5.50;;;7.70;80.00;;;;;;4970808;28;20026;-75
2022/12/06 11:51:52;;;;;;;9.82;5.47;;;7.90;80.40;;;;;;4954664;28;20656;-75
2022/12/06 11:54:29;;;;;;;9.88;5.63;;;8.00;80.80;;;;;;4956288;28;20066;-75
2022/12/06 11:57:00;;;;;;;9.35;5.68;;;8.00;80.60;;;;;;4954336;28;20053;-76
2022/12/06 11:59:28;;;;;;;10.93;6.18;;;8.10;80.30;;;;;;4972146;28;20027;-78
2022/12/06 12:02:02;;;;;;;9.73;4.90;;;8.10;79.50;;;;;;4960348;28;20042;-76
2022/12/06 12:04:42;;;;;;;8.13;4.70;;;8.10;78.30;;;;;;4961806;28;20041;-76
2022/12/06 12:07:18;;;;;;;9.07;4.30;;;8.10;77.30;;;;;;4958234;28;20035;-75
2022/12/06 12:09:52;;;;;;;6.90;3.70;;;8.20;77.20;;;;;;4962173;28;20855;-76
2022/12/06 12:15:22;;;;;;;8.63;4.90;;;8.20;76.80;;;;;;4964633;28;20057;-75
2022/12/06 12:17:51;;;;;;;9.55;5.38;;;8.20;77.60;;;;;;4969532;28;20393;-74
2022/12/06 12:20:26;;;;;;;11.15;5.72;;;8.20;78.40;;;;;;4966174;28;20039;-74
2022/12/06 12:23:16;;;;;;;9.82;5.15;;;8.10;78.80;;;;;;4961519;28;20038;-74
2022/12/06 12:25:42;;;;;;;8.57;4.80;;;8.10;78.50;;;;;;4956465;28;20475;-76
2022/12/06 12:28:25;;;;;;;8.88;4.97;;;8.10;78.00;;;;;;4960688;28;20042;-76
2022/12/06 12:30:53;;;;;;;9.88;4.47;;;8.10;77.00;;;;;;4959639;28;20045;-75
2022/12/06 12:33:21;;;;;;;8.02;3.65;;;8.10;77.60;;;;;;4963713;28;20047;-78
2022/12/06 12:36:26;;;;;;;6.95;3.78;;;8.10;76.40;;;;;;4962138;28;20034;-77
2022/12/06 12:39:01;;;;;;;7.22;4.07;;;8.10;76.60;;;;;;4957243;28;20403;-74
2022/12/06 12:41:38;;;;;;;7.55;3.42;;;8.10;75.40;;;;;;4961879;28;20023;-74
2022/12/06 12:44:20;;;;;;;10.30;5.25;;;8.10;75.30;;;;;;4964879;28;20034;-76
2022/12/06 12:47:17;;;;;;;10.52;5.90;;;8.20;75.40;;;;;;4967150;28;20049;-74
2022/12/06 12:49:57;;;;;;;9.05;4.00;;;8.20;74.90;;;;;;4956773;28;20031;-78
2022/12/06 12:52:27;;;;;;;9.05;3.38;;;8.20;75.20;;;;;;4962289;28;20402;-75
2022/12/06 12:55:20;;;;;;;6.72;3.70;;;8.20;75.20;;;;;;4965245;28;20042;-75
2022/12/06 12:57:57;;;;;;;7.65;3.40;;;8.20;75.10;;;;;;4966448;28;20034;-79
2022/12/06 13:00:27;;;;;;;8.23;3.85;;;8.10;75.60;;;;;;4972098;28;20506;-75
2022/12/06 13:03:02;;;;;;;7.85;3.67;;;8.00;75.90;;;;;;4966340;28;20042;-75
2022/12/06 13:05:32;;;;;;;7.47;3.58;;;8.00;76.80;;;;;;4966793;28;20613;-74
2022/12/06 13:08:16;;;;;;;7.47;3.78;;;7.90;76.80;;;;;;4978433;28;20065;-76
2022/12/06 13:10:45;;;;;;;8.23;3.20;;;8.00;76.50;;;;;;4971653;28;20039;-76
2022/12/06 13:13:16;;;;;;;8.57;3.40;;;8.10;75.70;;;;;;4966188;28;20272;-77
2022/12/06 13:15:47;;;;;;;7.80;3.60;;;8.10;75.30;;;;;;4964115;28;20092;-75
2022/12/06 13:18:19;;;;;;;9.98;4.03;;;8.20;75.10;;;;;;4965569;28;20110;-75
2022/12/06 13:20:46;;;;;;;8.35;4.30;;;8.40;75.40;;;;;;4956648;28;20054;-76
2022/12/06 13:23:13;;;;;;;11.05;6.03;;;8.40;75.80;;;;;;4956561;28;20039;-78
2022/12/06 13:25:44;;;;;;;9.23;6.35;;;8.40;75.60;;;;;;4956168;28;20050;-77
2022/12/06 13:28:17;;;;;;;9.35;6.60;;;8.40;75.60;;;;;;4954807;28;20035;-82